Austin, Texas
Traffic Map
Current Weather Conditions
Austin, Texas
Clear
Clear
19°
Feels Like: 19°
Wind Chill: 19° Ceiling: Unl
Heat Index: 19° Visibility: 10mi
Dew Point: -3° Wind: 6mph
Humidity: 22% Direction: ° ()
Pressure: 30.27in Gusts: 0mph
Raw Report DataKATT 251951Z AUTO VRB05KT 10SM CLR 19/M03 A3027 RMK AO2 SLP248 T01891033
Traffic Incident Summary
Active as of:
Severity:
Category:
InformationThere was an issue retrieving the traffic information for this location. Please try a different location or try again shortly.
Advertisements
Track Severe Weather on mobile